Time;durP1;ratioP1;P1;durP2;ratioP2;P2;SDS_P1;SDS_P2;PMS_P1;PMS_P2;Temp;Humidity;BMP_temperature;BMP_pressure;BME280_temperature;BME280_humidity;BME280_pressure;Samples;Min_cycle;Max_cycle;Signal;HPM_P1;HPM_P2
2022/04/28 00:05:40;;;;;;;1.70;1.60;;;;;;;;;;12626265;28;20048;-80
2022/04/28 00:11:42;;;;;;;1.63;1.40;;;;;;;;;;12626934;28;20484;-80
2022/04/28 00:17:44;;;;;;;1.90;1.70;;;;;;;;;;12626712;28;20024;-81
2022/04/28 00:23:46;;;;;;;1.40;1.30;;;;;;;;;;12610242;28;20039;-81
2022/04/28 00:29:47;;;;;;;1.73;1.63;;;;;;;;;;12626301;28;20401;-80
2022/04/28 00:35:49;;;;;;;1.93;1.60;;;;;;;;;;12609538;28;20505;-81
2022/04/28 00:41:51;;;;;;;1.90;1.80;;;;;;;;;;12626095;28;20028;-80
2022/04/28 00:54:14;;;;;;;3.67;1.83;;;;;;;;;;12643762;28;20028;-80
2022/04/28 01:00:16;;;;;;;1.83;1.73;;;;;;;;;;12644150;28;20051;-80
2022/04/28 01:06:18;;;;;;;1.88;1.77;;;;;;;;;;12625174;28;20040;-80
2022/04/28 01:12:21;;;;;;;2.30;2.10;;;;;;;;;;12625146;28;20036;-81
2022/04/28 01:18:25;;;;;;;2.13;1.90;;;;;;;;;;12632618;28;20035;-81
2022/04/28 01:24:27;;;;;;;1.70;1.60;;;;;;;;;;12634741;28;20032;-80
2022/04/28 01:30:29;;;;;;;2.40;2.20;;;;;;;;;;12634381;28;20066;-80
2022/04/28 01:36:32;;;;;;;1.83;1.73;;;;;;;;;;12617816;28;20288;-81
2022/04/28 01:42:34;;;;;;;1.87;1.77;;;;;;;;;;12633897;28;20036;-80
2022/04/28 01:48:36;;;;;;;2.17;2.00;;;;;;;;;;12633753;28;20052;-80
2022/04/28 01:54:59;;;;;;;1.60;1.50;;;;;;;;;;12651804;28;20028;-80
2022/04/28 02:01:16;;;;;;;1.80;1.70;;;;;;;;;;12640132;28;20373;-80
2022/04/28 02:07:18;;;;;;;1.70;1.60;;;;;;;;;;12632692;28;20059;-80
2022/04/28 02:13:19;;;;;;;2.20;2.10;;;;;;;;;;12616139;28;20481;-81
2022/04/28 02:19:54;;;;;;;1.75;1.65;;;;;;;;;;12604134;28;20083;-80
2022/04/28 02:25:55;;;;;;;2.00;1.90;;;;;;;;;;12631221;28;20047;-80
2022/04/28 02:31:57;;;;;;;2.47;2.28;;;;;;;;;;12615141;28;20298;-81
2022/04/28 02:37:59;;;;;;;2.10;1.95;;;;;;;;;;12650194;28;20032;-80
2022/04/28 02:44:01;;;;;;;1.90;1.80;;;;;;;;;;12631296;28;20032;-81
2022/04/28 02:50:05;;;;;;;1.80;1.70;;;;;;;;;;12630895;28;20044;-80
2022/04/28 02:56:13;;;;;;;1.75;1.65;;;;;;;;;;12630252;28;20473;-81
2022/04/28 03:02:15;;;;;;;1.63;1.53;;;;;;;;;;12649353;28;20036;-80
2022/04/28 03:14:37;;;;;;;1.73;1.63;;;;;;;;;;12629574;28;20043;-80
2022/04/28 03:20:39;;;;;;;1.73;1.57;;;;;;;;;;12629402;28;20062;-80
2022/04/28 03:26:41;;;;;;;1.80;1.70;;;;;;;;;;12628900;28;20040;-80
2022/04/28 03:32:47;;;;;;;1.90;1.80;;;;;;;;;;12629457;28;20060;-80
2022/04/28 03:38:49;;;;;;;1.88;1.77;;;;;;;;;;12645469;28;20036;-80
2022/04/28 03:44:51;;;;;;;1.50;1.40;;;;;;;;;;12646359;28;20032;-80
2022/04/28 03:50:53;;;;;;;1.37;1.27;;;;;;;;;;12627902;28;20047;-80
2022/04/28 03:56:55;;;;;;;1.50;1.40;;;;;;;;;;12627675;28;20036;-80
2022/04/28 04:02:56;;;;;;;1.20;1.10;;;;;;;;;;12611231;28;20054;-80
2022/04/28 04:08:58;;;;;;;1.85;1.65;;;;;;;;;;12627353;28;20055;-80
2022/04/28 04:15:00;;;;;;;1.38;1.27;;;;;;;;;;12626696;28;20032;-80
2022/04/28 04:21:20;;;;;;;1.33;1.23;;;;;;;;;;12627027;28;20477;-80
2022/04/28 04:27:22;;;;;;;1.60;1.50;;;;;;;;;;12627971;28;20504;-80
2022/04/28 04:33:45;;;;;;;2.15;1.45;;;;;;;;;;12626147;28;20497;-80
2022/04/28 04:39:47;;;;;;;1.43;1.33;;;;;;;;;;12626052;28;20405;-81
2022/04/28 04:45:49;;;;;;;1.55;1.45;;;;;;;;;;12625765;28;20055;-81
2022/04/28 04:51:53;;;;;;;2.08;1.50;;;;;;;;;;12625472;28;20621;-80
2022/04/28 04:57:57;;;;;;;1.38;1.27;;;;;;;;;;12625758;28;20106;-79
2022/04/28 05:04:00;;;;;;;1.88;1.77;;;;;;;;;;12610902;28;20036;-80
2022/04/28 05:10:20;;;;;;;1.60;1.50;;;;;;;;;;12643839;28;20040;-80
2022/04/28 05:16:22;;;;;;;1.77;1.67;;;;;;;;;;12609883;28;20400;-80
2022/04/28 05:22:50;;;;;;;1.58;1.48;;;;;;;;;;12639833;28;20043;-80
2022/04/28 05:29:26;;;;;;;1.63;1.52;;;;;;;;;;12566667;28;20059;-80
2022/04/28 05:35:47;;;;;;;2.10;1.65;;;;;;;;;;12622975;28;20401;-78
2022/04/28 05:41:49;;;;;;;1.53;1.43;;;;;;;;;;12611613;28;20032;-79
2022/04/28 05:47:50;;;;;;;1.38;1.23;;;;;;;;;;12629097;28;20498;-78
2022/04/28 05:53:52;;;;;;;1.58;1.40;;;;;;;;;;12606862;28;20036;-78
2022/04/28 05:59:55;;;;;;;1.83;1.40;;;;;;;;;;12617376;28;20042;-78
2022/04/28 06:06:15;;;;;;;1.15;1.13;;;;;;;;;;12638118;28;20055;-78
2022/04/28 06:12:18;;;;;;;1.45;1.30;;;;;;;;;;12618443;28;20035;-78
2022/04/28 06:18:40;;;;;;;1.80;1.53;;;;;;;;;;12630642;28;20043;-79
2022/04/28 06:25:05;;;;;;;1.92;1.83;;;;;;;;;;12623560;28;20052;-79
2022/04/28 06:31:07;;;;;;;7.53;6.83;;;;;;;;;;12605108;28;20040;-79
2022/04/28 06:37:44;;;;;;;6.90;6.28;;;;;;;;;;12544719;28;20043;-78
2022/04/28 06:43:46;;;;;;;12.23;11.07;;;;;;;;;;12646385;28;20643;-79
2022/04/28 06:50:13;;;;;;;9.55;8.80;;;;;;;;;;12605527;28;20052;-80
2022/04/28 06:56:33;;;;;;;7.18;6.57;;;;;;;;;;12631834;28;20028;-78
2022/04/28 07:02:41;;;;;;;5.68;5.18;;;;;;;;;;12599114;28;20023;-80
2022/04/28 07:08:45;;;;;;;4.73;4.30;;;;;;;;;;12620924;28;20040;-79
2022/04/28 07:14:47;;;;;;;3.95;3.65;;;;;;;;;;12609331;28;20392;-80
2022/04/28 07:21:15;;;;;;;3.40;3.10;;;;;;;;;;12632314;28;20031;-79
2022/04/28 07:27:17;;;;;;;;;;;;;;;;;;12616119;28;20071;-77
2022/04/28 07:33:25;;;;;;;8.95;6.80;;;;;;;;;;12592961;28;20381;-79
2022/04/28 07:39:47;;;;;;;2.60;2.40;;;;;;;;;;12529162;28;20048;-79
2022/04/28 07:45:52;;;;;;;2.50;2.30;;;;;;;;;;12552413;28;20040;-80
2022/04/28 07:51:55;;;;;;;4.43;4.03;;;;;;;;;;12520860;28;20040;-81
2022/04/28 07:57:56;;;;;;;2.27;2.00;;;;;;;;;;12530169;28;20029;-81
2022/04/28 08:04:08;;;;;;;9.57;8.63;;;;;;;;;;12531079;28;20044;-80
2022/04/28 08:10:12;;;;;;;5.55;5.03;;;;;;;;;;12538214;28;20490;-81
2022/04/28 08:16:14;;;;;;;5.40;5.00;;;;;;;;;;12536949;28;20044;-80
2022/04/28 08:22:19;;;;;;;3.55;3.25;;;;;;;;;;12526857;28;20028;-81
2022/04/28 08:28:21;;;;;;;2.47;2.03;;;;;;;;;;12524166;28;20051;-80
2022/04/28 08:34:22;;;;;;;2.27;1.90;;;;;;;;;;12516799;28;20048;-79
2022/04/28 08:40:26;;;;;;;1.55;1.08;;;;;;;;;;12521686;28;20529;-80
2022/04/28 08:52:49;;;;;;;0.93;0.85;;;;;;;;;;12537302;28;20353;-79
2022/04/28 08:59:04;;;;;;;1.52;0.77;;;;;;;;;;12524374;28;20032;-80
2022/04/28 09:05:10;;;;;;;0.68;0.65;;;;;;;;;;12532310;28;20474;-79
2022/04/28 09:11:32;;;;;;;34.92;31.98;;;;;;;;;;12531344;28;20188;-79
2022/04/28 09:17:41;;;;;;;17.98;16.38;;;;;;;;;;12519914;28;20390;-80
2022/04/28 09:23:45;;;;;;;8.52;7.25;;;;;;;;;;12504027;28;20040;-79
2022/04/28 09:29:47;;;;;;;4.15;3.85;;;;;;;;;;12531084;28;20366;-78
2022/04/28 09:35:49;;;;;;;15.93;10.50;;;;;;;;;;12613082;28;20039;-80
2022/04/28 09:42:29;;;;;;;11.80;9.07;;;;;;;;;;12634411;28;20397;-78
2022/04/28 09:48:32;;;;;;;10.20;6.88;;;;;;;;;;12619957;28;20412;-80
2022/04/28 09:54:40;;;;;;;6.45;4.47;;;;;;;;;;12610971;28;20493;-80
2022/04/28 10:00:50;;;;;;;4.45;3.60;;;;;;;;;;12612379;28;20036;-83
2022/04/28 10:06:55;;;;;;;2.72;2.53;;;;;;;;;;12619216;28;20055;-80
2022/04/28 10:13:01;;;;;;;2.35;2.15;;;;;;;;;;12619971;28;20431;-81
2022/04/28 10:19:20;;;;;;;1.40;1.30;;;;;;;;;;12604814;28;20653;-80
2022/04/28 10:38:16;;;;;;;1.63;1.42;;;;;;;;;;12635864;28;20416;-82
2022/04/28 10:44:18;;;;;;;0.88;0.88;;;;;;;;;;12641114;28;20043;-82
2022/04/28 10:50:20;;;;;;;;;;;;;;;;;;12619628;28;20044;-82
2022/04/28 10:56:22;;;;;;;1.45;0.95;;;;;;;;;;12625373;28;19916;-81
2022/04/28 11:02:25;;;;;;;;;;;;;;;;;;12620748;28;20043;-82
2022/04/28 11:08:34;;;;;;;1.20;1.00;;;;;;;;;;12618936;28;19928;-81
2022/04/28 11:15:13;;;;;;;1.00;0.85;;;;;;;;;;12632668;28;20485;-81
2022/04/28 11:21:15;;;;;;;1.60;1.23;;;;;;;;;;12568263;28;20055;-81
2022/04/28 11:27:21;;;;;;;4.47;4.10;;;;;;;;;;12639582;28;20511;-81
2022/04/28 11:33:29;;;;;;;5.07;3.80;;;;;;;;;;12618669;28;20055;-81
2022/04/28 11:39:34;;;;;;;3.00;2.80;;;;;;;;;;12578772;28;20047;-81
2022/04/28 11:45:37;;;;;;;4.07;3.78;;;;;;;;;;12595459;28;20485;-81
2022/04/28 11:51:38;;;;;;;15.77;14.48;;;;;;;;;;12585595;28;20059;-81
2022/04/28 11:57:40;;;;;;;5.70;5.25;;;;;;;;;;12580328;28;20063;-79
2022/04/28 12:03:47;;;;;;;5.55;3.35;;;;;;;;;;12570230;28;20057;-79
2022/04/28 12:19:19;;;;;;;1.52;1.40;;;;;;;;;;12545438;28;20082;-78
2022/04/28 12:22:45;;;;;;;1.33;1.23;;;;;;;;;;12584194;28;20497;-80
2022/04/28 12:28:47;;;;;;;1.52;1.42;;;;;;;;;;12596973;28;20469;-75
2022/04/28 12:34:59;;;;;;;1.10;1.00;;;;;;;;;;12603188;28;20463;-76
2022/04/28 12:41:16;;;;;;;0.70;0.70;;;;;;;;;;12616857;28;20031;-78
2022/04/28 12:47:18;;;;;;;31.10;28.38;;;;;;;;;;12639313;28;20051;-77
2022/04/28 12:53:32;;;;;;;6.68;6.18;;;;;;;;;;12588156;28;20076;-76
2022/04/28 12:59:37;;;;;;;5.20;4.80;;;;;;;;;;12588639;28;20121;-77
2022/04/28 13:05:39;;;;;;;4.93;4.50;;;;;;;;;;12604703;28;20075;-78
2022/04/28 13:11:47;;;;;;;15.63;14.32;;;;;;;;;;12589409;28;20032;-76
2022/04/28 13:17:49;;;;;;;17.17;15.52;;;;;;;;;;12611120;28;20064;-77
2022/04/28 13:23:51;;;;;;;11.95;10.95;;;;;;;;;;12611343;28;20359;-77
2022/04/28 13:29:53;;;;;;;8.65;7.85;;;;;;;;;;12611440;28;20096;-78
2022/04/28 13:35:55;;;;;;;6.47;5.97;;;;;;;;;;12612041;28;20064;-79
2022/04/28 13:41:56;;;;;;;4.65;4.25;;;;;;;;;;12598368;28;20020;-76
2022/04/28 13:47:58;;;;;;;3.53;3.20;;;;;;;;;;12644725;28;20063;-77
2022/04/28 13:54:00;;;;;;;3.05;2.75;;;;;;;;;;12621561;28;20027;-77
2022/04/28 14:00:02;;;;;;;2.17;2.05;;;;;;;;;;12631832;28;20020;-77
2022/04/28 14:06:14;;;;;;;;;;;;;;;;;;12647071;28;20142;-77
2022/04/28 14:12:16;;;;;;;3.90;3.67;;;;;;;;;;12630721;28;19916;-78
2022/04/28 14:18:17;;;;;;;2.90;2.70;;;;;;;;;;12647209;28;20292;-78
2022/04/28 14:24:19;;;;;;;2.30;2.20;;;;;;;;;;12647301;28;20495;-80
2022/04/28 14:30:21;;;;;;;1.25;1.15;;;;;;;;;;12648436;28;20048;-78
2022/04/28 14:36:22;;;;;;;;;;;;;;;;;;12649733;28;20032;-78
2022/04/28 14:42:24;;;;;;;5.97;2.43;;;;;;;;;;12648534;28;19908;-78
2022/04/28 14:48:26;;;;;;;1.52;1.42;;;;;;;;;;12648653;28;20381;-78
2022/04/28 14:54:27;;;;;;;1.58;1.20;;;;;;;;;;12648816;28;20032;-78
2022/04/28 15:00:29;;;;;;;0.73;0.73;;;;;;;;;;12649385;28;20032;-78
2022/04/28 15:06:31;;;;;;;1.15;1.05;;;;;;;;;;12648335;28;20051;-78
2022/04/28 15:12:33;;;;;;;;;;;;;;;;;;12646956;28;20032;-78
2022/04/28 15:18:34;;;;;;;1.93;1.10;;;;;;;;;;12647506;28;19908;-78
2022/04/28 15:24:36;;;;;;;0.60;0.60;;;;;;;;;;12646922;28;20366;-78
2022/04/28 15:30:38;;;;;;;;;;;;;;;;;;12646861;28;20052;-78
2022/04/28 15:36:40;;;;;;;0.47;0.47;;;;;;;;;;12646395;28;19912;-78
2022/04/28 15:42:43;;;;;;;0.70;0.70;;;;;;;;;;12645942;28;20032;-78
2022/04/28 15:48:44;;;;;;;0.60;0.60;;;;;;;;;;12628096;28;20401;-78
2022/04/28 15:54:46;;;;;;;;;;;;;;;;;;12627922;28;20043;-79
2022/04/28 16:00:51;;;;;;;0.52;0.52;;;;;;;;;;12628400;28;20272;-78
2022/04/28 16:06:53;;;;;;;0.40;0.38;;;;;;;;;;12645116;28;20036;-79
2022/04/28 16:12:54;;;;;;;;;;;;;;;;;;12645478;28;20047;-79
2022/04/28 16:18:56;;;;;;;0.40;0.40;;;;;;;;;;12644031;28;19908;-79
2022/04/28 16:24:58;;;;;;;0.40;0.40;;;;;;;;;;12642672;28;20036;-79
2022/04/28 16:31:00;;;;;;;0.50;0.50;;;;;;;;;;12644439;28;20051;-78
2022/04/28 16:37:02;;;;;;;0.68;0.38;;;;;;;;;;12643396;28;20074;-79
2022/04/28 16:43:05;;;;;;;0.70;0.70;;;;;;;;;;12644234;28;20032;-79
2022/04/28 16:49:07;;;;;;;0.57;0.50;;;;;;;;;;12641644;28;20035;-78
2022/04/28 16:55:09;;;;;;;0.50;0.50;;;;;;;;;;12625843;28;20050;-79
2022/04/28 17:01:11;;;;;;;0.52;0.52;;;;;;;;;;12626405;28;20032;-78
2022/04/28 17:07:12;;;;;;;0.50;0.50;;;;;;;;;;12643210;28;20532;-79
2022/04/28 17:13:16;;;;;;;0.63;0.50;;;;;;;;;;12643353;28;20024;-79
2022/04/28 17:19:18;;;;;;;0.82;0.60;;;;;;;;;;12643362;28;20036;-79
2022/04/28 17:25:20;;;;;;;0.50;0.50;;;;;;;;;;12641846;28;20039;-79
2022/04/28 17:31:22;;;;;;;1.00;0.63;;;;;;;;;;12641901;28;20227;-78
2022/04/28 17:37:24;;;;;;;0.77;0.60;;;;;;;;;;12642917;28;20508;-78
2022/04/28 17:43:26;;;;;;;0.70;0.70;;;;;;;;;;12642528;28;20028;-77
2022/04/28 17:49:27;;;;;;;0.52;0.52;;;;;;;;;;12641409;28;20047;-77
2022/04/28 18:01:49;;;;;;;0.82;0.65;;;;;;;;;;12650851;28;20043;-78
2022/04/28 18:07:51;;;;;;;1.08;0.98;;;;;;;;;;12632586;28;20036;-78
2022/04/28 18:13:53;;;;;;;0.85;0.80;;;;;;;;;;12649619;28;20040;-78
2022/04/28 18:19:55;;;;;;;0.95;0.80;;;;;;;;;;12649824;28;20036;-78
2022/04/28 18:25:57;;;;;;;0.98;0.90;;;;;;;;;;12649840;28;20040;-78
2022/04/28 18:31:58;;;;;;;1.98;1.52;;;;;;;;;;12648935;28;20397;-79
2022/04/28 18:44:27;;;;;;;3.22;2.55;;;;;;;;;;12648600;28;20054;-81
2022/04/28 18:50:29;;;;;;;1.90;1.80;;;;;;;;;;12648775;28;20062;-84
2022/04/28 18:56:31;;;;;;;;;;;;;;;;;;12647851;28;20512;-85
2022/04/28 19:02:33;;;;;;;2.20;2.00;;;;;;;;;;12647329;28;19939;-81
2022/04/28 19:08:35;;;;;;;1.60;1.50;;;;;;;;;;12632062;28;20044;-84
2022/04/28 19:14:51;;;;;;;1.70;1.60;;;;;;;;;;12647907;28;20039;-79
2022/04/28 19:20:53;;;;;;;2.35;2.15;;;;;;;;;;12647266;28;20301;-83
2022/04/28 19:26:55;;;;;;;1.80;1.63;;;;;;;;;;12645782;28;20051;-84
2022/04/28 19:33:04;;;;;;;2.30;2.10;;;;;;;;;;12646194;28;20313;-85
2022/04/28 19:39:07;;;;;;;2.67;2.42;;;;;;;;;;12645950;28;20034;-79
2022/04/28 19:45:08;;;;;;;1.80;1.67;;;;;;;;;;12646588;28;20039;-79
2022/04/28 19:51:10;;;;;;;2.20;2.00;;;;;;;;;;12645819;28;20044;-82
2022/04/28 19:57:13;;;;;;;2.40;2.20;;;;;;;;;;12627831;28;20040;-80
2022/04/28 20:03:15;;;;;;;3.75;3.45;;;;;;;;;;12644263;28;20845;-78
2022/04/28 20:09:18;;;;;;;3.40;3.20;;;;;;;;;;12627634;28;20067;-81
2022/04/28 20:15:19;;;;;;;2.65;2.45;;;;;;;;;;12644568;28;20032;-81
2022/04/28 20:21:24;;;;;;;3.53;3.33;;;;;;;;;;12644426;28;20036;-79
2022/04/28 20:27:26;;;;;;;2.60;2.40;;;;;;;;;;12645022;28;20032;-78
2022/04/28 20:33:29;;;;;;;2.40;2.25;;;;;;;;;;12645287;28;20067;-78
2022/04/28 20:39:30;;;;;;;2.22;2.03;;;;;;;;;;12644719;28;20036;-76
2022/04/28 20:45:32;;;;;;;1.90;1.80;;;;;;;;;;12642528;28;20381;-78
2022/04/28 20:51:34;;;;;;;2.77;2.33;;;;;;;;;;12644003;28;20040;-79
2022/04/28 20:57:37;;;;;;;2.50;2.30;;;;;;;;;;12642761;28;20028;-79
2022/04/28 21:03:38;;;;;;;2.20;2.08;;;;;;;;;;12643292;28;20039;-79
2022/04/28 21:09:40;;;;;;;2.57;2.37;;;;;;;;;;12642811;28;20048;-79
2022/04/28 21:15:42;;;;;;;2.40;2.20;;;;;;;;;;12642450;28;20040;-79
2022/04/28 21:21:43;;;;;;;2.60;2.40;;;;;;;;;;12642372;28;20508;-78
2022/04/28 21:27:45;;;;;;;2.47;2.27;;;;;;;;;;12643413;28;20397;-78
2022/04/28 21:33:48;;;;;;;2.87;2.60;;;;;;;;;;12646516;28;20052;-78
2022/04/28 21:39:50;;;;;;;3.08;2.88;;;;;;;;;;12652742;28;20428;-78
2022/04/28 21:45:53;;;;;;;;;;;;;;;;;;12634512;28;20393;-78
2022/04/28 21:51:55;;;;;;;2.33;2.13;;;;;;;;;;12651169;28;19915;-78
2022/04/28 21:57:59;;;;;;;2.53;2.33;;;;;;;;;;12633518;28;20040;-78
2022/04/28 22:16:41;;;;;;;2.40;2.20;;;;;;;;;;12651283;28;20040;-78
2022/04/28 22:22:43;;;;;;;5.00;2.03;;;;;;;;;;12632581;28;20032;-78
2022/04/28 22:28:45;;;;;;;3.17;2.10;;;;;;;;;;12650561;28;20465;-78
2022/04/28 22:34:47;;;;;;;2.37;2.17;;;;;;;;;;12632383;28;20048;-78
2022/04/28 22:40:51;;;;;;;1.90;1.75;;;;;;;;;;12649937;28;20393;-78
2022/04/28 22:46:53;;;;;;;2.08;1.90;;;;;;;;;;12649803;28;20040;-78
2022/04/28 22:52:54;;;;;;;1.83;1.67;;;;;;;;;;12649305;28;20028;-79
2022/04/28 22:58:56;;;;;;;2.77;1.57;;;;;;;;;;12649250;28;20034;-79
2022/04/28 23:04:58;;;;;;;4.50;2.20;;;;;;;;;;12648450;28;20036;-79
2022/04/28 23:11:00;;;;;;;2.10;1.30;;;;;;;;;;12648536;28;20040;-79
2022/04/28 23:17:06;;;;;;;1.30;1.15;;;;;;;;;;12648056;28;20643;-78
2022/04/28 23:23:08;;;;;;;2.00;1.80;;;;;;;;;;12646707;28;20027;-79
2022/04/28 23:29:09;;;;;;;2.03;1.83;;;;;;;;;;12647908;28;20478;-79
2022/04/28 23:47:55;;;;;;;1.38;1.27;;;;;;;;;;12646523;28;20064;-79
